Terminal Aerodrome Forecast
Issued by NWS Bismarck, ND

Home | Current Version | Previous Version | Graphics & Text | Print | Product List | Glossary On
Versions: 1 2 3 4 5 6 7 8 9 10 11 12 13 14 15 16 17 18 19 20 21 22 23 24 25 26 27 28 29 30 31
174
FTUS43 KBIS 261524 AAC
TAFBIS
TAF AMD
KBIS 261524Z 2615/2712 05006KT P6SM SCT120
      TEMPO 2616/2617 29015G30KT -TSRA BKN040CB
     FM261700 07006KT P6SM -SHRA VCTS BKN090CB
     FM262100 04008KT P6SM BKN200
     FM270500 07006KT P6SM BKN200=

USA.gov is the U.S. government's official web portal to all federal, state and local government web resources and services.